Time;durP1;ratioP1;P1;durP2;ratioP2;P2;SDS_P1;SDS_P2;PMS_P1;PMS_P2;Temp;Humidity;BMP_temperature;BMP_pressure;BME280_temperature;BME280_humidity;BME280_pressure;Samples;Min_cycle;Max_cycle;Signal;HPM_P1;HPM_P2
2023/07/21 00:02:45;;;;;;;1.55;1.45;;;;;;;15.75;97.22;101280.59;10413659;28;20139;-70
2023/07/21 00:07:47;;;;;;;1.98;1.88;;;;;;;15.76;97.47;101282.28;10430615;28;20076;-70
2023/07/21 00:12:48;;;;;;;1.92;1.33;;;;;;;15.74;97.87;101287.97;10414984;28;20053;-69
2023/07/21 00:17:49;;;;;;;1.35;1.33;;;;;;;15.70;97.58;101283.19;10414510;28;20033;-70
2023/07/21 00:22:49;;;;;;;2.33;2.08;;;;;;;15.68;98.08;101279.81;10413076;28;20081;-69
2023/07/21 00:27:49;;;;;;;2.28;1.55;;;;;;;15.69;97.86;101276.88;10428697;28;20038;-70
2023/07/21 00:32:50;;;;;;;2.13;2.03;;;;;;;15.72;98.08;101272.84;10428568;28;20044;-70
2023/07/21 00:37:51;;;;;;;2.55;1.80;;;;;;;15.74;97.96;101270.75;10412509;28;20557;-70
2023/07/21 00:42:51;;;;;;;2.58;2.03;;;;;;;15.76;98.24;101271.34;10413425;28;20224;-70
2023/07/21 00:47:52;;;;;;;1.20;1.20;;;;;;;15.79;98.23;101266.31;10413078;28;20449;-70
2023/07/21 00:52:52;;;;;;;1.83;1.63;;;;;;;15.72;98.35;101251.00;10411999;28;20115;-69
2023/07/21 00:57:53;;;;;;;6.75;2.33;;;;;;;15.65;98.33;101250.22;10410888;28;20029;-71
2023/07/21 01:02:54;;;;;;;2.08;1.92;;;;;;;15.54;98.63;101247.16;10412654;28;20037;-70
2023/07/21 01:07:54;;;;;;;1.60;1.50;;;;;;;15.46;98.54;101239.22;10396265;28;20041;-69
2023/07/21 01:12:55;;;;;;;1.75;1.65;;;;;;;15.40;98.79;101240.09;10427320;28;20040;-69
2023/07/21 01:17:55;;;;;;;3.85;2.10;;;;;;;15.33;98.79;101236.59;10411878;28;20029;-69
2023/07/21 01:23:00;;;;;;;2.58;2.38;;;;;;;15.29;99.08;101227.19;10411663;28;20033;-70
2023/07/21 01:28:01;;;;;;;2.85;1.85;;;;;;;15.24;100.00;101221.53;10412783;28;20469;-69
2023/07/21 01:33:01;;;;;;;1.73;1.63;;;;;;;15.22;100.00;101224.50;10428294;28;20068;-71
2023/07/21 01:38:02;;;;;;;2.47;2.35;;;;;;;15.20;100.00;101223.03;10404635;28;20070;-68
2023/07/21 01:43:02;;;;;;;3.13;2.08;;;;;;;15.16;100.00;101219.09;10420241;28;20448;-70
2023/07/21 01:48:03;;;;;;;1.92;1.83;;;;;;;15.23;100.00;101226.16;10418354;28;20029;-69
2023/07/21 01:53:04;;;;;;;5.25;2.67;;;;;;;15.27;100.00;101223.81;10419408;28;20081;-69
2023/07/21 01:58:06;;;;;;;3.90;2.80;;;;;;;15.29;100.00;101219.00;10434536;28;20037;-69
2023/07/21 02:03:07;;;;;;;2.20;2.00;;;;;;;15.27;100.00;101221.94;10418170;28;20061;-69
2023/07/21 02:08:09;;;;;;;2.70;2.50;;;;;;;15.29;100.00;101221.72;10418067;28;20040;-69
2023/07/21 02:13:10;;;;;;;2.75;2.25;;;;;;;15.26;100.00;101222.16;10417142;28;20338;-69
2023/07/21 02:18:10;;;;;;;2.75;2.50;;;;;;;15.15;100.00;101215.50;10423835;28;20083;-69
2023/07/21 02:23:12;;;;;;;2.13;2.03;;;;;;;14.99;100.00;101192.31;10416820;28;20116;-69
2023/07/21 02:28:12;;;;;;;3.70;3.00;;;;;;;14.83;100.00;101184.66;10417832;28;20044;-70
2023/07/21 02:33:15;;;;;;;6.03;2.30;;;;;;;14.68;100.00;101193.16;10417705;28;20079;-70
2023/07/21 02:38:15;;;;;;;3.47;2.85;;;;;;;14.54;100.00;101203.25;10418380;28;20033;-70
2023/07/21 02:43:17;;;;;;;2.30;2.10;;;;;;;14.35;100.00;101199.53;10418087;28;20330;-69
2023/07/21 02:48:18;;;;;;;3.38;2.88;;;;;;;14.16;100.00;101194.97;10416841;28;20507;-69
2023/07/21 02:53:19;;;;;;;2.97;2.70;;;;;;;14.05;100.00;101192.94;10416631;28;20045;-69
2023/07/21 02:58:20;;;;;;;2.80;2.60;;;;;;;13.92;100.00;101186.47;10417531;28;20049;-70
2023/07/21 03:03:24;;;;;;;3.30;2.80;;;;;;;13.85;100.00;101198.44;10415261;28;20029;-70
2023/07/21 03:08:28;;;;;;;2.83;2.28;;;;;;;13.82;100.00;101193.41;10431358;28;20468;-70
2023/07/21 03:13:29;;;;;;;6.70;3.33;;;;;;;13.75;100.00;101178.94;10416208;28;20068;-69
2023/07/21 03:18:29;;;;;;;3.88;3.60;;;;;;;13.73;100.00;101177.28;10415919;28;20033;-70
2023/07/21 03:23:30;;;;;;;4.00;3.50;;;;;;;13.73;100.00;101166.41;10415219;28;20033;-70
2023/07/21 03:28:31;;;;;;;3.63;3.33;;;;;;;13.81;100.00;101165.31;10415700;28;20116;-69
2023/07/21 03:33:31;;;;;;;3.65;3.35;;;;;;;13.92;100.00;101172.03;10416068;28;20040;-70
2023/07/21 03:38:33;;;;;;;3.28;3.08;;;;;;;13.96;100.00;101165.09;10414844;28;20034;-70
2023/07/21 03:43:35;;;;;;;5.25;3.90;;;;;;;14.01;100.00;101165.28;10414943;28;20033;-69
2023/07/21 03:48:35;;;;;;;5.55;4.05;;;;;;;14.05;100.00;101161.09;10396384;28;20107;-70
2023/07/21 03:53:36;;;;;;;6.53;4.40;;;;;;;14.13;100.00;101149.13;10413428;28;20123;-69
2023/07/21 03:58:36;;;;;;;3.65;3.35;;;;;;;14.30;100.00;101157.66;10413056;28;20046;-70
2023/07/21 04:03:36;;;;;;;3.03;2.75;;;;;;;14.43;100.00;101155.69;10414289;28;20038;-69
2023/07/21 04:08:37;;;;;;;3.30;3.10;;;;;;;14.59;100.00;101150.84;10413801;28;20553;-70
2023/07/21 04:13:38;;;;;;;4.90;4.50;;;;;;;14.69;100.00;101151.19;10429596;28;20086;-70
2023/07/21 04:18:39;;;;;;;4.05;3.72;;;;;;;14.81;100.00;101140.44;10412781;28;20465;-69
2023/07/21 04:23:39;;;;;;;6.53;3.85;;;;;;;14.94;100.00;101143.06;10429692;28;20381;-69
2023/07/21 04:28:41;;;;;;;5.28;4.03;;;;;;;14.99;100.00;101135.06;10413421;28;20116;-70
2023/07/21 04:33:41;;;;;;;7.25;3.92;;;;;;;15.02;100.00;101136.50;10412294;28;20527;-70
2023/07/21 04:38:42;;;;;;;4.97;4.05;;;;;;;15.07;100.00;101132.06;10413269;28;20032;-70
2023/07/21 04:43:43;;;;;;;8.57;4.07;;;;;;;15.17;100.00;101130.72;10413968;28;20383;-70
2023/07/21 04:48:44;;;;;;;3.63;3.30;;;;;;;15.29;100.00;101135.25;10413282;28;20032;-69
2023/07/21 04:53:44;;;;;;;5.15;4.15;;;;;;;15.42;100.00;101128.00;10411706;28;20377;-70
2023/07/21 04:58:45;;;;;;;7.28;4.63;;;;;;;15.52;100.00;101126.44;10413554;28;20085;-71
2023/07/21 05:03:45;;;;;;;5.35;4.85;;;;;;;15.59;100.00;101140.00;10413105;28;20120;-69
2023/07/21 05:08:45;;;;;;;4.03;3.28;;;;;;;15.65;100.00;101144.56;10414100;28;20033;-70
2023/07/21 05:13:48;;;;;;;10.75;4.43;;;;;;;15.71;100.00;101142.88;10420563;28;20037;-71
2023/07/21 05:18:48;;;;;;;4.80;4.40;;;;;;;15.73;100.00;101133.41;10420162;28;20144;-70
2023/07/21 05:23:49;;;;;;;5.43;4.05;;;;;;;15.75;100.00;101134.00;10421372;28;20339;-69
2023/07/21 05:28:54;;;;;;;5.65;4.22;;;;;;;15.76;100.00;101134.81;10435546;28;20034;-72
2023/07/21 05:33:54;;;;;;;5.50;5.00;;;;;;;15.79;100.00;101123.44;10421737;28;20037;-69
2023/07/21 05:38:54;;;;;;;4.20;3.70;;;;;;;15.86;100.00;101135.16;10420620;28;20042;-70
2023/07/21 05:43:55;;;;;;;6.28;4.22;;;;;;;15.92;100.00;101128.78;10420065;28;20061;-71
2023/07/21 05:48:55;;;;;;;7.45;4.05;;;;;;;16.07;100.00;101133.03;10420169;28;20037;-72
2023/07/21 05:53:56;;;;;;;5.00;4.60;;;;;;;16.19;100.00;101126.56;10420980;28;20061;-73
2023/07/21 05:58:56;;;;;;;4.82;4.38;;;;;;;16.32;100.00;101136.50;10418923;28;20030;-72
2023/07/21 06:03:57;;;;;;;5.68;5.28;;;;;;;16.46;100.00;101121.59;10419741;28;20041;-70
2023/07/21 06:08:58;;;;;;;5.90;5.30;;;;;;;16.63;100.00;101123.69;10434257;28;20087;-72
2023/07/21 06:13:58;;;;;;;8.88;5.68;;;;;;;16.85;100.00;101126.75;10418361;28;20101;-71
2023/07/21 06:19:00;;;;;;;9.38;4.53;;;;;;;16.99;100.00;101128.22;10417754;28;20034;-71
2023/07/21 06:24:00;;;;;;;5.53;4.75;;;;;;;17.20;100.00;101126.84;10415413;28;20082;-70
2023/07/21 06:29:01;;;;;;;9.00;5.15;;;;;;;17.51;100.00;101130.28;10417949;28;20092;-69
2023/07/21 06:34:01;;;;;;;7.88;3.67;;;;;;;17.83;100.00;101136.25;10417581;28;20033;-71
2023/07/21 06:39:02;;;;;;;2.72;2.53;;;;;;;18.23;100.00;101130.81;10417357;28;20399;-70
2023/07/21 06:44:02;;;;;;;5.60;2.13;;;;;;;18.70;100.00;101132.56;10416887;28;20547;-72
2023/07/21 06:49:03;;;;;;;2.20;2.10;;;;;;;19.07;100.00;101129.41;10415591;28;20038;-71
2023/07/21 06:54:07;;;;;;;9.32;1.50;;;;;;;19.43;100.00;101128.06;10417224;28;20056;-72
2023/07/21 06:59:07;;;;;;;4.88;2.05;;;;;;;19.68;100.00;101120.22;10417874;28;20042;-71
2023/07/21 07:04:07;;;;;;;1.45;1.35;;;;;;;19.61;98.84;101111.31;10415229;28;20461;-71
2023/07/21 07:09:08;;;;;;;0.93;0.93;;;;;;;19.71;98.98;101113.41;10415864;28;20100;-71
2023/07/21 07:14:09;;;;;;;1.58;1.48;;;;;;;20.14;98.30;101104.38;10415470;28;20052;-72
2023/07/21 07:19:09;;;;;;;2.38;1.75;;;;;;;20.57;96.71;101108.16;10415223;28;20068;-73
2023/07/21 07:24:10;;;;;;;2.85;2.65;;;;;;;21.56;93.83;101108.75;10416320;28;20034;-69
2023/07/21 07:29:10;;;;;;;2.35;2.15;;;;;;;22.06;91.58;101108.19;10415288;28;20067;-70
2023/07/21 07:34:11;;;;;;;5.18;2.58;;;;;;;22.27;91.23;101100.88;10416209;28;20091;-70
2023/07/21 07:39:15;;;;;;;2.78;2.42;;;;;;;22.40;89.18;101101.44;10415704;28;20041;-70
2023/07/21 07:44:15;;;;;;;3.17;2.13;;;;;;;22.73;81.65;101109.25;10414921;28;20048;-76
2023/07/21 07:49:15;;;;;;;2.33;2.20;;;;;;;23.52;80.39;101109.03;10414171;28;20047;-71
2023/07/21 07:54:16;;;;;;;1.80;1.70;;;;;;;23.12;82.23;101099.66;10414970;28;20057;-72
2023/07/21 07:59:18;;;;;;;2.35;2.25;;;;;;;22.95;83.31;101100.75;10414892;28;20049;-72
2023/07/21 08:04:18;;;;;;;10.25;2.22;;;;;;;24.31;74.09;101091.63;10412725;28;20354;-70
2023/07/21 08:09:18;;;;;;;2.72;2.53;;;;;;;23.20;67.42;101099.09;10412812;28;20117;-70
2023/07/21 08:14:19;;;;;;;2.38;2.28;;;;;;;23.50;77.07;101103.75;10414645;28;20092;-71
2023/07/21 08:19:19;;;;;;;6.03;2.40;;;;;;;23.92;73.65;101102.56;10413146;28;20038;-70
2023/07/21 08:24:20;;;;;;;1.85;1.75;;;;;;;25.74;72.82;101101.56;10413485;28;20171;-71
2023/07/21 08:29:20;;;;;;;1.77;1.67;;;;;;;27.65;67.47;101092.91;10413024;28;20083;-70
2023/07/21 08:34:20;;;;;;;1.45;1.23;;;;;;;28.01;69.15;101097.78;10412498;28;20125;-70
2023/07/21 08:39:21;;;;;;;1.02;1.02;;;;;;;26.99;71.37;101094.06;10412971;28;20111;-69
2023/07/21 08:44:22;;;;;;;2.28;1.65;;;;;;;27.29;64.79;101090.81;10411528;28;20118;-69
2023/07/21 08:49:22;;;;;;;1.58;1.48;;;;;;;25.84;71.20;101097.03;10411484;28;20025;-69
2023/07/21 08:54:23;;;;;;;2.55;2.13;;;;;;;24.50;74.15;101094.56;10427405;28;20528;-68
2023/07/21 08:59:23;;;;;;;1.52;1.48;;;;;;;23.40;77.84;101096.31;10412545;28;20040;-69
2023/07/21 09:04:24;;;;;;;2.67;1.95;;;;;;;22.20;76.68;101091.19;10411218;28;20109;-69
2023/07/21 09:09:28;;;;;;;2.05;1.92;;;;;;;21.34;79.91;101100.59;10412030;28;20038;-70
2023/07/21 09:14:39;;;;;;;1.35;1.25;;;;;;;20.94;77.82;101096.44;10412792;28;20033;-70
2023/07/21 09:19:41;;;;;;;1.63;1.50;;;;;;;20.90;79.28;101093.38;10410608;28;20030;-69
2023/07/21 09:24:51;;;;;;;1.40;1.40;;;;;;;22.26;75.91;101099.19;10411638;28;20065;-69
2023/07/21 09:30:01;;;;;;;1.33;1.33;;;;;;;24.82;64.75;101096.84;10394122;28;20462;-68
2023/07/21 09:35:03;;;;;;;0.80;0.80;;;;;;;23.42;64.47;101102.41;10413485;28;20041;-70
2023/07/21 09:40:05;;;;;;;0.80;0.80;;;;;;;22.29;69.64;101097.84;10412340;28;20151;-69
2023/07/21 09:45:06;;;;;;;1.13;1.13;;;;;;;21.63;69.91;101092.81;10393982;28;20041;-70
2023/07/21 09:50:07;;;;;;;1.23;1.20;;;;;;;21.31;73.02;101098.34;10411441;28;20516;-70
2023/07/21 09:55:13;;;;;;;1.48;0.95;;;;;;;21.07;73.72;101095.16;10410620;28;20140;-71
2023/07/21 10:00:14;;;;;;;2.45;1.50;;;;;;;20.72;72.91;101087.41;10419319;28;20041;-70
2023/07/21 10:05:15;;;;;;;1.52;1.30;;;;;;;20.72;71.55;101091.00;10434341;28;20089;-69
2023/07/21 10:10:15;;;;;;;2.55;1.77;;;;;;;20.30;71.34;101086.13;10418765;28;20142;-69
2023/07/21 10:15:17;;;;;;;1.52;1.42;;;;;;;19.71;73.99;101103.22;10418518;28;20061;-69
2023/07/21 10:20:17;;;;;;;5.15;1.80;;;;;;;19.70;77.97;101106.25;10417422;28;20037;-69
2023/07/21 10:25:22;;;;;;;2.65;1.75;;;;;;;21.14;82.59;101104.84;10416787;28;20034;-69
2023/07/21 10:30:24;;;;;;;1.40;1.30;;;;;;;22.32;79.57;101110.25;10417453;28;20026;-69
2023/07/21 10:35:50;;;;;;;1.95;1.67;;;;;;;21.39;77.94;101119.94;10415737;28;20278;-71
2023/07/21 10:40:51;;;;;;;3.03;1.45;;;;;;;20.44;80.46;101125.06;10417077;28;20052;-72
2023/07/21 10:45:53;;;;;;;2.17;2.08;;;;;;;20.26;83.72;101122.63;10417546;28;20033;-70
2023/07/21 10:50:58;;;;;;;2.13;1.92;;;;;;;20.28;84.48;101121.28;10417873;28;20381;-69
2023/07/21 10:56:06;;;;;;;2.38;2.17;;;;;;;20.73;84.70;101144.94;10419670;28;20050;-71
2023/07/21 11:01:06;;;;;;;3.15;2.83;;;;;;;20.19;84.82;101142.91;10415621;28;20041;-70
2023/07/21 11:06:07;;;;;;;1.63;1.52;;;;;;;19.85;88.46;101144.94;10414782;28;20030;-70
2023/07/21 11:11:11;;;;;;;3.25;2.30;;;;;;;20.18;90.14;101141.25;10414412;28;20033;-70
2023/07/21 11:16:11;;;;;;;7.15;2.50;;;;;;;20.74;91.12;101140.25;10430468;28;20061;-73
2023/07/21 11:21:12;;;;;;;2.92;2.70;;;;;;;23.57;83.79;101137.47;10416298;28;20074;-69
2023/07/21 11:26:12;;;;;;;5.18;3.08;;;;;;;25.09;80.94;101131.56;10415525;28;20034;-72
2023/07/21 11:31:13;;;;;;;8.48;3.28;;;;;;;25.92;71.70;101133.28;10413906;28;20030;-72
2023/07/21 11:36:17;;;;;;;7.90;3.80;;;;;;;25.84;60.38;101135.88;10414108;28;20082;-72
2023/07/21 11:41:33;;;;;;;3.63;3.33;;;;;;;24.49;60.80;101114.22;10414060;28;20022;-73
2023/07/21 11:46:33;;;;;;;6.78;3.42;;;;;;;24.59;60.67;101126.06;10415019;28;20025;-73
2023/07/21 11:51:42;;;;;;;4.68;4.22;;;;;;;26.27;56.86;101122.06;10415254;28;20120;-73
2023/07/21 11:56:42;;;;;;;4.50;4.13;;;;;;;25.89;55.99;101127.50;10412635;28;20389;-72
2023/07/21 12:01:43;;;;;;;6.25;4.68;;;;;;;25.15;58.85;101121.28;10414438;28;20132;-72
2023/07/21 12:06:43;;;;;;;7.05;4.53;;;;;;;24.55;58.20;101129.72;10412996;28;20108;-73
2023/07/21 12:11:44;;;;;;;5.10;4.60;;;;;;;24.32;56.77;101134.78;10414201;28;20092;-71
2023/07/21 12:16:45;;;;;;;8.50;6.35;;;;;;;25.13;54.93;101129.88;10415091;28;20037;-73
2023/07/21 12:21:45;;;;;;;6.60;6.10;;;;;;;24.95;53.28;101141.63;10412729;28;20045;-73
2023/07/21 12:26:46;;;;;;;5.88;5.20;;;;;;;25.43;54.43;101141.81;10395248;28;20064;-71
2023/07/21 12:31:46;;;;;;;10.80;5.32;;;;;;;25.16;54.57;101153.41;10412210;28;20128;-70
2023/07/21 12:36:47;;;;;;;7.05;6.43;;;;;;;24.48;55.69;101154.94;10413201;28;20025;-71
2023/07/21 12:41:47;;;;;;;8.23;4.90;;;;;;;24.95;54.37;101153.56;10411002;28;20470;-71
2023/07/21 12:46:47;;;;;;;6.20;5.63;;;;;;;25.92;54.61;101158.28;10412130;28;20124;-71
2023/07/21 12:51:50;;;;;;;7.45;6.45;;;;;;;26.85;51.30;101158.75;10414808;28;20397;-70
2023/07/21 12:56:50;;;;;;;6.97;6.32;;;;;;;26.12;49.85;101162.75;10412936;28;20041;-69
2023/07/21 13:01:50;;;;;;;6.03;5.53;;;;;;;26.82;49.25;101164.09;10411224;28;20069;-72
2023/07/21 13:06:53;;;;;;;5.70;5.20;;;;;;;26.90;49.25;101163.41;10427817;28;20040;-71
2023/07/21 13:11:56;;;;;;;7.03;5.00;;;;;;;27.11;45.37;101161.13;10411804;28;20038;-69
2023/07/21 13:16:56;;;;;;;5.55;5.10;;;;;;;27.07;44.85;101176.78;10412930;28;20030;-70
2023/07/21 13:21:56;;;;;;;5.78;5.38;;;;;;;27.21;46.75;101165.72;10413296;28;20037;-72
2023/07/21 13:26:57;;;;;;;9.60;5.05;;;;;;;26.36;46.78;101184.13;10411506;28;20361;-71
2023/07/21 13:31:57;;;;;;;6.03;5.40;;;;;;;25.94;47.28;101182.94;10417490;28;20519;-71
2023/07/21 13:36:58;;;;;;;9.75;5.53;;;;;;;25.28;48.36;101176.06;10420044;28;20478;-71
2023/07/21 13:41:58;;;;;;;7.05;5.40;;;;;;;25.03;46.38;101180.63;10435008;28;20125;-70
2023/07/21 13:46:58;;;;;;;13.85;5.72;;;;;;;25.19;47.79;101186.91;10435871;28;20037;-64
2023/07/21 13:51:59;;;;;;;6.38;5.15;;;;;;;24.94;47.78;101190.66;10419548;28;20101;-67
2023/07/21 13:56:59;;;;;;;6.68;6.00;;;;;;;24.64;47.73;101188.09;10434748;28;20029;-66
2023/07/21 14:02:00;;;;;;;5.82;5.35;;;;;;;23.89;47.39;101197.16;10418374;28;20025;-67
2023/07/21 14:07:00;;;;;;;11.55;6.88;;;;;;;23.90;49.99;101207.13;10418203;28;20037;-69
2023/07/21 14:12:01;;;;;;;6.22;5.63;;;;;;;23.92;49.89;101202.13;10417017;28;20087;-66
2023/07/21 14:17:01;;;;;;;7.47;6.00;;;;;;;23.93;49.76;101209.34;10418295;28;20068;-68
2023/07/21 14:22:02;;;;;;;5.32;4.95;;;;;;;24.40;48.44;101208.09;10418105;28;20037;-67
2023/07/21 14:27:02;;;;;;;13.60;5.93;;;;;;;24.64;50.14;101205.53;10417801;28;20040;-71
2023/07/21 14:32:03;;;;;;;4.82;4.18;;;;;;;24.80;47.79;101215.41;10418168;28;20041;-69
2023/07/21 14:37:03;;;;;;;5.80;5.10;;;;;;;24.07;47.68;101215.13;10418041;28;20038;-70
2023/07/21 14:42:04;;;;;;;7.38;5.05;;;;;;;23.94;47.20;101207.41;10416508;28;20473;-70
2023/07/21 14:47:05;;;;;;;6.65;5.78;;;;;;;24.00;45.15;101212.66;10400244;28;20040;-69
2023/07/21 14:52:06;;;;;;;9.85;4.90;;;;;;;23.75;48.12;101215.44;10433000;28;20084;-70
2023/07/21 14:57:07;;;;;;;5.90;5.43;;;;;;;23.45;50.15;101222.59;10416893;28;20034;-69
2023/07/21 15:02:08;;;;;;;7.00;5.75;;;;;;;23.38;51.38;101214.59;10416309;28;20033;-69
2023/07/21 15:07:08;;;;;;;5.72;5.22;;;;;;;23.39;51.55;101220.97;10431473;28;20035;-70
2023/07/21 15:12:09;;;;;;;14.77;6.22;;;;;;;23.38;52.09;101222.88;10414183;28;20489;-70
2023/07/21 15:17:09;;;;;;;11.65;6.45;;;;;;;23.86;52.78;101217.91;10416189;28;20029;-70
2023/07/21 15:22:09;;;;;;;6.28;5.78;;;;;;;24.16;52.85;101218.97;10417003;28;20133;-69
2023/07/21 15:27:10;;;;;;;4.95;4.50;;;;;;;23.85;52.54;101219.03;10415131;28;20501;-70
2023/07/21 15:32:10;;;;;;;5.93;4.45;;;;;;;23.26;51.78;101224.25;10417280;28;20120;-68
2023/07/21 15:37:11;;;;;;;13.10;4.57;;;;;;;23.14;50.76;101230.88;10414897;28;20030;-69
2023/07/21 15:42:11;;;;;;;6.43;4.07;;;;;;;22.38;51.16;101241.63;10414530;28;20046;-68
2023/07/21 15:47:12;;;;;;;4.05;3.67;;;;;;;22.08;51.17;101234.81;10414974;28;20111;-69
2023/07/21 15:52:12;;;;;;;10.43;3.67;;;;;;;21.95;51.93;101230.59;10412205;28;20139;-70
2023/07/21 15:57:12;;;;;;;3.35;3.05;;;;;;;21.79;53.08;101240.69;10429312;28;20074;-69
2023/07/21 16:02:13;;;;;;;9.63;4.53;;;;;;;21.91;54.63;101254.25;10413762;28;20075;-69
2023/07/21 16:07:13;;;;;;;3.38;3.15;;;;;;;21.94;54.53;101247.38;10429639;28;20038;-70
2023/07/21 16:12:14;;;;;;;4.38;4.03;;;;;;;21.57;54.62;101260.06;10413842;28;20139;-68
2023/07/21 16:17:14;;;;;;;4.88;3.88;;;;;;;21.61;55.81;101257.63;10413849;28;20465;-69
2023/07/21 16:22:14;;;;;;;14.57;4.30;;;;;;;21.58;56.54;101244.38;10412232;28;20137;-68
2023/07/21 16:27:15;;;;;;;3.72;3.42;;;;;;;21.18;57.25;101251.09;10413418;28;20033;-69
2023/07/21 16:32:15;;;;;;;4.47;4.18;;;;;;;20.49;59.24;101257.16;10413318;28;20044;-69
2023/07/21 16:37:16;;;;;;;5.22;4.75;;;;;;;20.17;59.94;101263.34;10413296;28;20402;-69
2023/07/21 16:42:17;;;;;;;6.43;5.18;;;;;;;20.21;59.91;101258.97;10413322;28;20045;-69
2023/07/21 16:47:17;;;;;;;5.35;4.85;;;;;;;19.79;62.85;101257.78;10411602;28;20033;-68
2023/07/21 16:52:19;;;;;;;6.80;5.80;;;;;;;19.39;65.99;101255.97;10413224;28;20061;-69
2023/07/21 16:57:22;;;;;;;6.10;5.47;;;;;;;19.41;66.07;101262.06;10412820;28;20087;-70
2023/07/21 17:02:25;;;;;;;6.03;5.43;;;;;;;19.40;66.33;101269.47;10413074;28;20055;-68
2023/07/21 17:07:26;;;;;;;9.15;5.68;;;;;;;19.42;65.65;101277.44;10417984;28;20033;-69
2023/07/21 17:12:26;;;;;;;8.25;5.78;;;;;;;19.50;65.82;101266.91;10421453;28;20037;-69
2023/07/21 17:17:27;;;;;;;12.98;6.20;;;;;;;19.49;65.38;101267.13;10419097;28;20057;-70
2023/07/21 17:22:27;;;;;;;10.32;6.60;;;;;;;19.62;65.87;101264.09;10419208;28;20185;-70
2023/07/21 17:27:27;;;;;;;7.82;6.03;;;;;;;19.40;66.52;101274.09;10421162;28;20500;-71
2023/07/21 17:32:28;;;;;;;8.45;6.45;;;;;;;19.15;67.32;101280.81;10420135;28;20080;-69
2023/07/21 17:37:28;;;;;;;10.18;6.13;;;;;;;19.11;70.31;101279.63;10418485;28;20041;-70
2023/07/21 17:42:29;;;;;;;9.02;6.45;;;;;;;19.07;70.37;101280.38;10419633;28;20469;-70
2023/07/21 17:47:29;;;;;;;7.00;6.32;;;;;;;19.02;71.72;101278.38;10435118;28;20049;-70
2023/07/21 17:52:30;;;;;;;9.80;6.80;;;;;;;19.00;70.38;101280.50;10435191;28;20088;-69
2023/07/21 17:57:31;;;;;;;10.25;8.00;;;;;;;18.84;74.38;101275.78;10435415;28;20065;-69
2023/07/21 18:02:31;;;;;;;9.95;7.95;;;;;;;18.55;73.03;101286.69;10418738;28;20069;-69
2023/07/21 18:07:32;;;;;;;9.60;5.72;;;;;;;17.59;85.65;101286.03;10419295;28;20037;-69
2023/07/21 18:12:32;;;;;;;5.75;4.85;;;;;;;16.71;96.68;101287.41;10435073;28;20469;-69
2023/07/21 18:17:32;;;;;;;11.90;5.45;;;;;;;16.45;98.56;101297.59;10418627;28;20134;-69
2023/07/21 18:22:33;;;;;;;6.97;5.18;;;;;;;16.52;98.50;101298.34;10418869;28;20048;-68
2023/07/21 18:27:34;;;;;;;9.38;4.80;;;;;;;16.54;100.00;101314.53;10416838;28;20132;-68
2023/07/21 18:32:34;;;;;;;7.50;4.65;;;;;;;16.44;100.00;101311.50;10418405;28;20038;-70
2023/07/21 18:37:35;;;;;;;4.35;3.95;;;;;;;16.32;100.00;101308.66;10417273;28;20124;-69
2023/07/21 18:42:35;;;;;;;4.63;4.22;;;;;;;16.28;99.27;101308.28;10417649;28;20040;-67
2023/07/21 18:47:35;;;;;;;4.97;4.05;;;;;;;16.36;97.04;101300.84;10417776;28;20361;-67
2023/07/21 18:52:36;;;;;;;9.80;6.00;;;;;;;16.46;94.84;101293.81;10416977;28;20088;-69
2023/07/21 18:57:36;;;;;;;7.05;5.13;;;;;;;16.40;95.26;101307.53;10416880;28;20037;-70
2023/07/21 19:02:37;;;;;;;4.72;4.35;;;;;;;16.28;94.64;101299.25;10415004;28;20092;-69
2023/07/21 19:07:37;;;;;;;4.70;4.20;;;;;;;16.17;95.05;101305.44;10416599;28;20036;-69
2023/07/21 19:12:38;;;;;;;5.25;4.57;;;;;;;16.07;98.78;101313.31;10415508;28;20124;-69
2023/07/21 19:17:39;;;;;;;4.88;4.13;;;;;;;16.07;98.32;101307.84;10416227;28;20071;-69
2023/07/21 19:22:39;;;;;;;4.30;3.80;;;;;;;15.98;97.51;101296.38;10414520;28;20474;-70
2023/07/21 19:27:39;;;;;;;5.53;4.90;;;;;;;15.91;100.00;101310.09;10415075;28;20464;-72
2023/07/21 19:32:41;;;;;;;5.78;3.97;;;;;;;15.89;100.00;101314.97;10415805;28;20033;-69
2023/07/21 19:37:42;;;;;;;5.72;4.88;;;;;;;15.81;100.00;101320.69;10415662;28;20044;-70
2023/07/21 19:42:42;;;;;;;5.20;4.70;;;;;;;15.76;100.00;101312.31;10431310;28;20385;-68
2023/07/21 19:47:43;;;;;;;7.40;6.70;;;;;;;15.71;100.00;101317.63;10413479;28;20072;-69
2023/07/21 19:52:43;;;;;;;12.75;5.30;;;;;;;15.68;100.00;101313.44;10413606;28;20053;-69
2023/07/21 19:57:43;;;;;;;7.43;5.07;;;;;;;15.66;100.00;101311.94;10414060;28;20036;-69
2023/07/21 20:02:45;;;;;;;6.65;5.03;;;;;;;15.59;100.00;101312.81;10415448;28;20081;-70
2023/07/21 20:07:46;;;;;;;10.93;5.97;;;;;;;15.59;100.00;101318.28;10415523;28;20506;-69
2023/07/21 20:12:46;;;;;;;7.07;5.45;;;;;;;15.56;100.00;101310.53;10414434;28;20106;-68
2023/07/21 20:17:46;;;;;;;8.48;5.78;;;;;;;15.44;100.00;101328.66;10413751;28;20041;-70
2023/07/21 20:22:47;;;;;;;13.77;7.13;;;;;;;15.40;100.00;101332.88;10414259;28;20037;-68
2023/07/21 20:27:47;;;;;;;9.60;6.68;;;;;;;15.45;100.00;101334.97;10412792;28;20037;-70
2023/07/21 20:32:50;;;;;;;8.40;6.80;;;;;;;15.50;100.00;101337.88;10412904;28;20386;-68
2023/07/21 20:37:50;;;;;;;13.45;6.43;;;;;;;15.38;100.00;101335.03;10413498;28;20029;-68
2023/07/21 20:42:50;;;;;;;11.77;7.35;;;;;;;15.23;100.00;101340.75;10411133;28;20064;-68
2023/07/21 20:47:51;;;;;;;10.88;7.10;;;;;;;15.16;100.00;101347.31;10415580;28;20045;-69
2023/07/21 20:52:51;;;;;;;10.60;7.18;;;;;;;15.14;100.00;101343.94;10413504;28;20058;-70
2023/07/21 20:57:52;;;;;;;10.63;6.80;;;;;;;15.09;100.00;101348.16;10412739;28;20478;-71
2023/07/21 21:02:52;;;;;;;12.02;7.43;;;;;;;15.15;100.00;101348.34;10428061;28;20517;-69
2023/07/21 21:07:53;;;;;;;14.02;9.23;;;;;;;15.30;100.00;101354.34;10411280;28;20135;-69
2023/07/21 21:12:53;;;;;;;10.95;7.22;;;;;;;15.35;100.00;101355.38;10411255;28;20535;-69
2023/07/21 21:17:54;;;;;;;9.00;6.70;;;;;;;15.30;100.00;101363.38;10412392;28;20072;-70
2023/07/21 21:22:54;;;;;;;11.95;9.00;;;;;;;15.28;100.00;101367.38;10411411;28;20045;-68
2023/07/21 21:27:55;;;;;;;14.88;8.65;;;;;;;15.26;100.00;101359.41;10413618;28;20037;-68
2023/07/21 21:32:56;;;;;;;15.75;9.50;;;;;;;15.33;100.00;101364.84;10412299;28;20374;-69
2023/07/21 21:37:56;;;;;;;14.38;8.52;;;;;;;15.37;100.00;101371.53;10412343;28;20034;-70
2023/07/21 21:42:57;;;;;;;14.43;9.45;;;;;;;15.33;100.00;101362.13;10411913;28;20034;-68
2023/07/21 21:47:57;;;;;;;9.25;7.85;;;;;;;15.32;100.00;101358.56;10411317;28;20110;-69
2023/07/21 21:52:58;;;;;;;14.45;9.13;;;;;;;15.35;100.00;101366.31;10416826;28;20460;-69
2023/07/21 21:57:59;;;;;;;14.45;10.82;;;;;;;15.34;100.00;101361.03;10419909;28;20112;-69
2023/07/21 22:02:59;;;;;;;13.40;9.38;;;;;;;15.35;100.00;101357.28;10418641;28;20544;-69
2023/07/21 22:08:00;;;;;;;15.23;11.63;;;;;;;15.45;100.00;101359.53;10417602;28;20030;-69
2023/07/21 22:13:01;;;;;;;13.18;8.82;;;;;;;15.54;100.00;101356.34;10401408;28;20033;-68
2023/07/21 22:18:01;;;;;;;18.17;9.63;;;;;;;15.59;100.00;101342.84;10419964;28;20105;-69
2023/07/21 22:23:02;;;;;;;12.35;8.23;;;;;;;15.69;100.00;101360.66;10419811;28;20033;-69
2023/07/21 22:28:02;;;;;;;15.15;9.80;;;;;;;15.79;100.00;101347.38;10433861;28;20551;-69
2023/07/21 22:33:03;;;;;;;17.63;8.95;;;;;;;15.75;100.00;101348.88;10416416;28;20041;-70
2023/07/21 22:38:03;;;;;;;11.68;8.25;;;;;;;15.74;100.00;101355.41;10415844;28;20109;-70
2023/07/21 22:43:04;;;;;;;10.48;6.97;;;;;;;15.75;100.00;101352.44;10418424;28;20105;-70
2023/07/21 22:48:04;;;;;;;14.90;9.18;;;;;;;15.70;100.00;101351.44;10419435;28;20072;-69
2023/07/21 22:53:05;;;;;;;9.15;7.82;;;;;;;15.67;100.00;101357.34;10417435;28;20137;-68